This is the latest recevied weather packets stored in our database for station/object SA7AHC. If no packets are shown the sender has not sent any weather packets the latest 10 day(s).
| Time | Temp. | Humidity | Pressure | Rain* | Wind** | Luminosity | Snow |
|---|---|---|---|---|---|---|---|
| 1777531536 | 8.89° C | 63% | 1029.7 hPa | 0 mm | - | 255 W/m² | - |
| 1777530932 | 8.33° C | 66% | 1029.6 hPa | 0 mm | - | 374 W/m² | - |
| 1777530328 | 7.22° C | 68% | 1029.6 hPa | 0 mm | - | 258 W/m² | - |
| 1777529731 | 6.67° C | 69% | 1029.5 hPa | 0 mm | - | 171 W/m² | - |
| 1777529122 | 6.67° C | 72% | 1029.5 hPa | 0 mm | - | 209 W/m² | - |
| 1777528525 | 6.11° C | 72% | 1029.4 hPa | 0 mm | - | 120 W/m² | - |
| 1777527929 | 5.56° C | 74% | 1029.5 hPa | 0 mm | - | 76 W/m² | - |
| 1777527318 | 4.44° C | 80% | 1029.3 hPa | 0 mm | - | 109 W/m² | - |
| 1777526720 | 4.44° C | 81% | 1029.3 hPa | 0 mm | - | 70 W/m² | - |
| 1777526116 | 3.89° C | 84% | 1029.1 hPa | 0 mm | - | 51 W/m² | - |
| 1777525519 | 3.33° C | 87% | 1029 hPa | 0 mm | - | 54 W/m² | - |
| 1777524905 | 2.78° C | 89% | 1029 hPa | 0 mm | - | 60 W/m² | - |
| 1777524308 | 2.22° C | 90% | 1028.9 hPa | 0 mm | - | 60 W/m² | - |
| 1777523707 | 1.67° C | 91% | 1028.8 hPa | 0 mm | - | 42 W/m² | - |
| 1777523104 | 1.67° C | 90% | 1028.8 hPa | 0 mm | - | 42 W/m² | - |
| 1777522512 | 1.11° C | 91% | 1028.9 hPa | 0 mm | - | 30 W/m² | - |
| 1777521905 | 1.11° C | 90% | 1028.8 hPa | 0 mm | - | 25 W/m² | - |
| 1777521300 | 1.11° C | 91% | 1028.9 hPa | 0 mm | - | 21 W/m² | - |
| 1777520697 | 1.11° C | 91% | 1028.7 hPa | 0 mm | - | 16 W/m² | - |
| 1777520078 | 1.11° C | 90% | 1028.5 hPa | 0 mm | - | 11 W/m² | - |
| 1777519477 | 1.11° C | 90% | 1028.5 hPa | 0 mm | - | 0 W/m² | - |
| 1777518874 | 1.11° C | 89% | 1028.6 hPa | 0 mm | - | 0 W/m² | - |
| 1777518272 | 1.11° C | 89% | 1028.8 hPa | 0 mm | - | 0 W/m² | - |
| 1777517661 | 1.11° C | 89% | 1028.8 hPa | 0 mm | - | 0 W/m² | - |
| 1777517047 | 1.11° C | 89% | 1028.9 hPa | 0 mm | - | 0 W/m² | - |
* Rain latest hour (hover to see other rain measurements)
** Current wind speed in m/s (hover to see current wind gust speed)